Airfield :
LOGIN :

Register | Disclaimer

   EN    FR    IT 

 










Legend :    VFR   Marginal VFR   IFR   Intensive IFR   Very Intensive IFR
Visi :
Ceiling :
>= 8 km
>= 3000ft
5 to 8 km
1000 to 3000 ft
1500m to 5 km
500 to 1000 ft
800 to 1500m
200 to 500 ft
< 800m
< 200 ft
Symbols :   Thunderstorms  Fog  Heavy snow  Heavy precipitations  Wind > 20 kt
SIGMETs :     Misc.  Thunderstorms  Icing  Turbulence  Mountain Waves  Volcanic Ashes






- Airport Elevation : 686 ft


LYKV - Ladevci

CURRENT METAR :
  • 080930Z 16004KT 120V210 5000 BR BKN007 07/07 Q1013 BECMG 7000 NSW SCT010

EXPIRED METARs :
  • 080900Z 19004KT 150V220 2000 BR BKN007 06/06 Q1014 BECMG 7000 NSW SCT010
  • 080830Z VRB01KT 2000 BR OVC006 06/06 Q1014 NOSIG
  • 080800Z VRB02KT 1000 R31/P2000N R13/P2000N BR OVC003 05/05 Q1014 NOSIG
  • 080730Z 00000KT 1000 R31/P2000N R13/1800N BR OVC003 05/05 Q1014 NOSIG
  • 080700Z VRB01KT 2000 BR OVC003 05/05 Q1014 NOSIG

TAF TAF LYKV
Valid from the 08 at 06:00 until the 09 at 06:00 UTC


080500Z 0806/0906 04005KT 5000 BR BKN010 BKN033 TX10/0813Z TN01/0905Z
TEMPO 0806/0807 3000 BKN005 BKN030
BECMG 0808/0810 8000 NSW SCT017 BKN033
TEMPO 0810/0815 RA
BECMG 0823/0901 0300 FG VV002



MET'MAP, your aeronautical weather chart ! - Copyright ORBIFLY December 2007 - Disclaimer

ORBIFLY MET'MAP TEAM :

Programming & Development : Alexandra Zaïnal
Original concept : Baudouin d'Aumeries
Technical & hardware support : Manuel Goepfert
Assistance : Marc-Olivier Méhu




SOURCES & CREDITS :

   NOAA